Weather reports worldwide

Advertisment
Nimes/Courbessac, France (7645): temperature & dewpoint: 18.03.2019 17:00:00 - 24.03.2019 17:00:00 (CET)Nimes/Courbessac, France (7645): temperature 5cm: 18.03.2019 17:00:00 - 24.03.2019 17:00:00 (CET)Nimes/Courbessac, France (7645): temperature -20cm: 18.03.2019 17:00:00 - 24.03.2019 17:00:00 (CET)Nimes/Courbessac, France (7645): wind speed & gusts: 18.03.2019 17:00:00 - 24.03.2019 17:00:00 (CET)Nimes/Courbessac, France (7645): wind direction: 18.03.2019 17:00:00 - 24.03.2019 17:00:00 (CET)Nimes/Courbessac, France (7645): reduced air pressure: 18.03.2019 17:00:00 - 24.03.2019 17:00:00 (CET)Nimes/Courbessac, France (7645): sunshine duration: 18.03.2019 17:00:00 - 24.03.2019 17:00:00 (CET)Nimes/Courbessac, France (7645): precipitation: 18.03.2019 17:00:00 - 24.03.2019 17:00:00 (CET)
Date & Time tt [°C] td [°C] tt 5cm [°C] tt -20cm [°C] ff [km/h] ff [kn] fx [km/h] fx [kn] dd ppp [hPa] sd [min] rr [mm]
24.03.2019 17:00:00 25,1 1,9 28,3 14,9 7 4 19 10 S 1019,2 60 0,0
24.03.2019 16:00:00 25,2 2,0 30,2 14,5 8 4 16 9 S 1019,8 60 0,0
24.03.2019 15:00:00 25,6 1,6 29,9 14,2 6 3 21 11 NE 1020,4 60 0,0
24.03.2019 14:00:00 24,9 2,3 28,8 13,8 4 2 19 10 W 1021,1 60 0,0
24.03.2019 13:00:00 23,5 0,5 28,0 13,5 8 4 21 11 N 1022,1 60 0,0
24.03.2019 12:00:00 22,4 3,5 27,2 13,3 9 5 19 10 NNE 1022,8 60 0,0
24.03.2019 11:00:00 21,1 3,8 22,8 13,2 9 5 27 14 NNE 1023,4 60 0,0
24.03.2019 10:00:00 18,3 3,3 19,8 13,1 17 9 30 16 N 1023,5 60 0,0
24.03.2019 09:00:00 16,3 2,7 16,4 13,2 15 8 26 14 N 1023,6 60 0,0
24.03.2019 08:00:00 14,2 2,4 11,3 13,3 16 9 29 16 NNW 1023,4 60 0,0
24.03.2019 07:00:00 12,4 1,7 10,0 13,4 14 8 25 14 N 1023,1 0 0,0
24.03.2019 06:00:00 11,8 1,4 10,3 13,5 10 6 23 12 N 1023,1 0 0,0
24.03.2019 05:00:00 12,6 1,6 11,1 13,7 14 7 22 12 N 1022,9 0 0,0
24.03.2019 04:00:00 13,2 1,8 9,6 13,8 9 5 15 8 N 1022,8 0 0,0
24.03.2019 03:00:00 13,2 2,4 10,8 13,9 9 5 18 10 N 1023,1 0 0,0
24.03.2019 02:00:00 13,5 2,1 11,4 14,1 9 5 19 11 N 1023,2 0 0,0
24.03.2019 01:00:00 14,1 2,0 11,2 14,2 10 5 18 10 NNW 1023,1 0 0,0
24.03.2019 00:00:00 12,8 2,3 7,5 14,3 11 6 16 9 NNW 1023,4 0 0,0
23.03.2019 23:00:00 13,3 0,6 8,4 14,4 0 0 17 9 N 1023,4 0 0,0
23.03.2019 22:00:00 16,5 0,6 8,9 14,5 11 6 18 10 N 1023,2 0 0,0
23.03.2019 21:00:00 13,5 1,5 10,8 14,6 4 2 10 5 NNW 1023,3 0 0,0
23.03.2019 20:00:00 15,8 1,1 11,6 14,6 5 3 7 4 NW 1022,8 0 0,0
23.03.2019 19:00:00 19,0 -0,4 15,4 14,5 4 2 29 15 ENE 1022,5 36 0,0
23.03.2019 18:00:00 23,2 -2,5 24,3 14,3 13 7 33 18 NNE 1021,7 60 0,0
23.03.2019 17:00:00 24,3 -4,0 26,3 14,0 22 12 33 18 NE 1021,8 60 0,0
23.03.2019 16:00:00 25,2 -4,2 28,3 13,7 19 11 34 18 NE 1021,8 60 0,0
23.03.2019 15:00:00 25,5 -2,2 28,8 13,3 16 9 39 21 NNE 1022,1 60 0,0
23.03.2019 14:00:00 25,0 -1,0 28,3 13,0 19 11 45 24 NNE 1022,7 60 0,0
23.03.2019 13:00:00 24,2 -0,9 27,3 12,7 19 11 52 28 NNE 1023,5 60 0,0
23.03.2019 12:00:00 23,6 -0,7 26,4 12,4 18 10 41 22 N 1024,2 60 0,0
23.03.2019 11:00:00 22,1 0,6 22,8 12,4 14 8 35 19 N 1024,7 60 0,0
23.03.2019 10:00:00 19,1 -0,4 19,2 12,4 17 9 34 18 N 1025,3 60 0,0
23.03.2019 09:00:00 15,1 0,1 14,0 12,5 8 4 19 11 NNW 1025,6 40 0,0
23.03.2019 08:00:00 11,9 -1,6 8,8 12,7 10 5 20 11 N 1025,6 58 0,0
23.03.2019 07:00:00 10,0 -2,7 4,5 12,8 11 6 18 10 N 1025,4 0 0,0
23.03.2019 06:00:00 6,2 -1,7 1,6 13,0 5 3 11 6 N 1025,5 0 0,0
23.03.2019 05:00:00 4,8 -0,8 1,7 13,2 0 0 9 5 N 1025,7 0 0,0
23.03.2019 04:00:00 7,3 -0,4 2,2 13,4 8 5 12 7 N 1026,0 0 0,0
23.03.2019 03:00:00 6,1 0,2 3,0 13,5 0 0 9 5 N 1026,2 0 0,0
23.03.2019 02:00:00 8,5 1,2 3,5 13,7 7 4 13 7 NNW 1026,3 0 0,0
23.03.2019 01:00:00 7,3 2,2 3,8 13,9 4 2 8 5 NNW 1026,6 0 0,0
23.03.2019 00:00:00 7,9 2,1 4,4 14,0 4 2 6 3 NW 1026,7 0 0,0
22.03.2019 23:00:00 9,3 2,2 6,7 14,2 0 0 10 6 N 1026,7 0 0,0
22.03.2019 22:00:00 10,1 2,2 6,7 14,3 4 2 8 4 NW 1026,6 0 0,0
22.03.2019 21:00:00 11,8 2,5 9,3 14,3 5 3 9 5 NNW 1026,2 0 0,0
22.03.2019 20:00:00 14,6 1,5 9,9 14,3 2 1 14 7 W 1025,7 0 0,0
22.03.2019 19:00:00 18,4 0,5 16,9 14,2 8 5 23 13 SW 1025,4 35 0,0
22.03.2019 18:00:00 21,5 1,7 22,9 14,0 11 6 22 12 SSW 1025,1 60 0,0
22.03.2019 17:00:00 22,8 1,7 26,2 13,7 9 5 24 13 SW 1025,2 60 0,0
22.03.2019 16:00:00 22,9 0,7 26,9 13,4 16 9 26 14 SSW 1025,7 60 0,0
22.03.2019 15:00:00 23,6 1,8 28,1 12,9 8 4 25 13 SSW 1026,3 60 0,0
22.03.2019 14:00:00 22,9 0,0 27,6 12,6 9 5 19 10 WSW 1026,8 60 0,0
22.03.2019 13:00:00 22,0 1,1 26,5 12,2 5 3 15 8 SSW 1027,6 60 0,0
22.03.2019 12:00:00 20,6 1,4 24,9 12,0 5 3 16 9 NNE 1028,2 60 0,0
22.03.2019 11:00:00 19,1 2,0 22,2 11,9 2 1 16 9 NNE 1028,8 60 0,0
22.03.2019 10:00:00 16,5 2,8 18,6 11,9 8 4 16 9 NNE 1029,1 60 0,0
22.03.2019 09:00:00 13,7 1,3 14,6 12,0 5 3 13 7 N 1028,9 60 0,0
22.03.2019 08:00:00 10,3 1,9 2,3 12,2 0 0 5 3 N 1028,9 54 0,0
22.03.2019 07:00:00 4,8 -0,2 1,9 12,3 4 2 9 5 E 1028,5 0 0,0
22.03.2019 06:00:00 5,7 -0,6 2,5 12,4 4 2 8 4 ENE 1028,3 0 0,0
22.03.2019 05:00:00 8,4 -0,6 6,1 12,6 5 3 26 14 ESE 1028,2 0 0,0
22.03.2019 04:00:00 10,0 -0,2 8,9 12,7 16 9 30 16 N 1027,8 0 0,0
22.03.2019 03:00:00 10,6 -0,3 5,1 12,8 14 8 27 14 N 1028,0 0 0,0
22.03.2019 02:00:00 7,4 -0,3 3,9 13,0 4 2 11 6 NNW 1028,6 0 0,0
22.03.2019 01:00:00 9,7 -0,8 6,4 13,1 6 3 22 12 ENE 1028,6 0 0,0
22.03.2019 00:00:00 10,9 -0,9 9,4 13,2 12 7 23 12 N 1028,4 0 0,0
21.03.2019 23:00:00 11,5 -0,7 7,6 13,4 10 5 20 11 NNW 1028,3 0 0,0
21.03.2019 22:00:00 8,9 0,3 5,7 13,5 6 4 16 8 N 1028,3 0 0,0
21.03.2019 21:00:00 9,4 1,3 7,5 13,5 5 3 10 5 NW 1028,1 0 0,0
21.03.2019 20:00:00 11,3 2,1 8,8 13,5 5 3 8 4 NNW 1027,6 0 0,0
21.03.2019 19:00:00 14,8 1,0 12,9 13,4 6 3 17 9 WSW 1026,8 34 0,0
21.03.2019 18:00:00 17,7 1,2 19,3 13,2 10 6 19 10 SSW 1026,4 60 0,0
21.03.2019 17:00:00 20,3 -2,8 24,2 13,0 2 1 13 7 NE 1026,3 60 0,0
21.03.2019 16:00:00 19,9 -2,5 25,3 12,6 4 2 18 10 W 1026,6 60 0,0
21.03.2019 15:00:00 19,3 -3,0 24,4 12,3 5 3 16 8 SW 1026,9 60 0,0
21.03.2019 14:00:00 18,4 -0,5 23,0 11,9 4 2 19 11 SSE 1027,5 60 0,0
21.03.2019 13:00:00 17,3 -1,4 21,8 11,6 11 6 25 13 ENE 1028,3 60 0,0
21.03.2019 12:00:00 15,7 -1,4 19,6 11,5 7 4 25 13 N 1028,9 60 0,0
21.03.2019 11:00:00 14,7 0,1 17,1 11,4 10 6 27 14 N 1029,2 60 0,0
21.03.2019 10:00:00 12,4 -1,5 14,1 11,4 16 9 37 20 N 1029,3 60 0,0
21.03.2019 09:00:00 10,2 -1,2 11,4 11,5 15 8 29 16 N 1029,3 60 0,0
21.03.2019 08:00:00 8,0 -1,8 5,8 11,6 8 4 18 10 N 1029,5 55 0,0
21.03.2019 07:00:00 6,9 -2,6 5,8 11,7 12 6 24 13 N 1028,9 0 0,0
21.03.2019 06:00:00 7,5 -2,5 6,3 11,8 14 8 28 15 N 1028,5 0 0,0
21.03.2019 05:00:00 7,7 -2,6 6,4 11,9 14 8 23 12 N 1028,6 0 0,0
21.03.2019 04:00:00 7,8 -2,5 5,8 12,1 11 6 23 13 N 1028,6 0 0,0
21.03.2019 03:00:00 7,5 -2,5 6,1 12,3 9 5 19 11 N 1028,9 0 0,0
21.03.2019 02:00:00 8,0 -2,6 6,1 12,4 9 5 22 12 NNE 1029,3 0 0,0
21.03.2019 01:00:00 8,1 -3,7 5,9 12,5 7 4 23 12 NNE 1029,2 0 0,0
21.03.2019 00:00:00 9,4 -4,6 8,0 12,6 12 7 23 13 N 1028,8 0 0,0
20.03.2019 23:00:00 10,0 -4,8 8,2 12,7 12 7 23 12 NNW 1028,9 0 0,0
20.03.2019 22:00:00 10,2 -4,2 7,1 12,8 10 5 18 10 N 1029,0 0 0,0
20.03.2019 21:00:00 11,5 -3,8 6,0 12,9 7 4 21 11 N 1028,5 0 0,0
20.03.2019 20:00:00 9,9 -2,8 5,7 12,9 4 2 14 7 NNE 1027,9 0 0,0
20.03.2019 19:00:00 12,8 -3,1 10,8 12,8 6 4 28 15 NNE 1027,4 32 0,0
20.03.2019 18:00:00 15,3 -4,1 16,7 12,7 17 9 31 17 NNE 1026,8 60 0,0
20.03.2019 17:00:00 16,1 -3,4 18,6 12,5 17 9 35 19 NE 1026,5 60 0,0
20.03.2019 16:00:00 16,4 -3,7 19,8 12,3 16 9 48 26 NNE 1026,7 60 0,0
20.03.2019 15:00:00 16,4 -3,7 19,6 12,0 16 9 36 19 NNE 1027,0 60 0,0
20.03.2019 14:00:00 15,6 -3,4 19,7 11,7 18 10 37 20 NNE 1027,3 60 0,0
20.03.2019 13:00:00 14,6 -4,7 18,3 11,5 23 12 47 25 NE 1028,2 60 0,0
20.03.2019 12:00:00 14,2 -4,1 17,3 11,3 20 11 45 25 NNE 1028,5 60 0,0
20.03.2019 11:00:00 13,0 -2,9 15,9 11,2 19 10 48 26 NNE 1028,6 60 0,0
20.03.2019 10:00:00 12,0 -2,3 13,0 11,3 18 10 50 27 N 1028,6 60 0,0
20.03.2019 09:00:00 10,0 -3,3 10,9 11,4 22 12 44 24 N 1028,4 60 0,0
20.03.2019 08:00:00 7,9 -2,7 5,0 11,5 14 7 29 16 N 1027,9 53 0,0
20.03.2019 07:00:00 6,1 -3,0 3,6 11,6 11 6 24 13 N 1027,4 0 0,0
20.03.2019 06:00:00 5,6 -3,2 4,0 11,8 8 4 19 11 N 1027,3 0 0,0
20.03.2019 05:00:00 6,2 -3,7 4,8 11,9 11 6 23 12 N 1027,0 0 0,0
20.03.2019 04:00:00 6,6 -3,9 5,3 12,0 10 5 20 11 N 1026,9 0 0,0
20.03.2019 03:00:00 7,2 -4,0 5,8 12,2 10 5 26 14 N 1027,0 0 0,0
20.03.2019 02:00:00 7,8 -3,7 6,4 12,3 10 6 26 14 N 1027,1 0 0,0
20.03.2019 01:00:00 8,5 -3,7 7,2 12,4 13 7 29 16 N 1026,9 0 0,0
20.03.2019 00:00:00 9,0 -3,6 7,8 12,5 14 8 34 19 N 1026,6 0 0,0
19.03.2019 23:00:00 9,4 -3,9 7,9 12,6 15 8 33 18 N 1026,0 0 0,0
19.03.2019 22:00:00 9,4 -3,5 8,1 12,7 10 6 25 14 NNW 1025,7 0 0,0
19.03.2019 21:00:00 10,0 -3,3 8,7 12,8 12 7 26 14 NNW 1025,3 0 0,0
19.03.2019 20:00:00 10,5 -3,2 9,0 12,8 9 5 24 13 N 1024,8 0 0,0
19.03.2019 19:00:00 11,9 -3,9 10,7 12,8 13 7 37 20 N 1024,3 31 0,0
19.03.2019 18:00:00 13,9 -4,3 13,8 12,7 21 11 41 22 N 1023,3 49 0,0
19.03.2019 17:00:00 14,9 -4,0 14,2 12,5 17 9 44 24 N 1022,9 33 0,0
19.03.2019 16:00:00 15,6 -4,4 17,1 12,3 20 11 49 26 N 1022,6 51 0,0
19.03.2019 15:00:00 16,1 -2,4 19,0 12,0 21 11 53 29 N 1022,3 60 0,0
19.03.2019 14:00:00 15,2 -1,4 19,2 11,7 22 12 52 28 N 1022,5 60 0,0
19.03.2019 13:00:00 14,6 -1,5 18,3 11,5 23 13 51 28 N 1023,1 60 0,0
19.03.2019 12:00:00 13,7 -2,3 16,5 11,4 24 13 59 32 N 1023,3 60 0,0
19.03.2019 11:00:00 12,7 0,1 14,3 11,3 27 14 67 36 N 1023,1 60 0,0
19.03.2019 10:00:00 11,2 0,0 13,1 11,4 31 17 66 36 N 1022,8 60 0,0
19.03.2019 09:00:00 10,0 0,3 10,4 11,5 28 15 50 27 N 1022,3 60 0,0
19.03.2019 08:00:00 8,2 -0,8 6,4 11,6 20 11 41 22 N 1021,9 30 0,0
19.03.2019 07:00:00 7,2 -1,0 6,3 11,7 19 11 40 22 N 1021,4 0 0,0
19.03.2019 06:00:00 7,6 -1,1 6,1 11,8 22 12 44 24 N 1020,9 0 0,0
19.03.2019 05:00:00 7,1 -1,3 5,8 12,0 19 10 36 19 N 1020,9 0 0,0
19.03.2019 04:00:00 7,2 -1,2 5,9 12,1 19 10 38 21 NNW 1020,4 0 0,0
19.03.2019 03:00:00 7,8 -1,2 7,1 12,2 20 11 39 21 NNW 1020,4 0 0,0
19.03.2019 02:00:00 7,7 -1,0 7,1 12,3 16 9 29 16 NW 1021,3 0 0,0
19.03.2019 01:00:00 8,0 -1,0 7,0 12,4 17 9 29 15 NW 1021,5 0 0,0
19.03.2019 00:00:00 8,0 -0,8 7,0 12,5 12 7 24 13 NW 1022,2 0 0,0
18.03.2019 23:00:00 8,9 -1,0 7,5 12,6 11 6 24 13 NNW 1022,8 0 0,0
18.03.2019 22:00:00 8,7 -0,9 7,8 12,7 10 6 27 15 N 1022,8 0 0,0
18.03.2019 21:00:00 8,9 -1,0 7,9 12,8 12 6 22 12 N 1022,6 0 0,0
18.03.2019 20:00:00 9,0 -0,3 7,5 12,9 9 5 24 13 NNE 1022,3 0 0,0
18.03.2019 19:00:00 10,2 -0,6 9,1 12,8 14 7 34 18 NNE 1021,6 20 0,0
18.03.2019 18:00:00 11,8 0,5 12,6 12,7 16 9 36 19 NNE 1021,0 48 0,0
18.03.2019 17:00:00 13,4 1,4 15,1 12,6 21 12 39 21 NNE 1020,5 53 0,0

tt = temperature
td = dewpoint
tt 5cm = temperature 5cm
tt -20cm = temperature -20cm
ff = wind speed
fx = gusts
dd = wind direction
ppp = reduced air pressure
sd = sunshine duration
rr = precipitation

Next stations